Time;durP1;ratioP1;P1;durP2;ratioP2;P2;SDS_P1;SDS_P2;PMS_P1;PMS_P2;Temp;Humidity;BMP_temperature;BMP_pressure;BME280_temperature;BME280_humidity;BME280_pressure;Samples;Min_cycle;Max_cycle;Signal;HPM_P1;HPM_P2
2022/06/03 00:01:26;;;;;;;10.18;6.90;;;9.30;99.90;;;;;;4993651;28;20464;-83
2022/06/03 00:04:36;;;;;;;7.07;6.32;;;9.30;99.90;;;;;;4984026;28;20046;-82
2022/06/03 00:07:11;;;;;;;7.90;6.55;;;9.30;99.90;;;;;;5012684;28;20038;-82
2022/06/03 00:09:53;;;;;;;11.07;7.60;;;9.30;95.00;;;;;;4998386;28;20058;-82
2022/06/03 00:12:23;;;;;;;9.32;6.70;;;9.20;99.90;;;;;;4992334;28;20589;-82
2022/06/03 00:14:52;;;;;;;10.27;8.60;;;9.10;99.90;;;;;;4978214;28;20102;-82
2022/06/03 00:17:42;;;;;;;10.77;7.40;;;9.10;99.90;;;;;;4982406;28;20488;-82
2022/06/03 00:20:23;;;;;;;9.15;7.30;;;9.20;99.90;;;;;;4997407;28;20275;-82
2022/06/03 00:23:06;;;;;;;10.25;6.75;;;9.10;99.90;;;;;;4996935;28;20077;-82
2022/06/03 00:25:53;;;;;;;10.07;7.07;;;9.10;99.90;;;;;;5010265;28;20046;-82
2022/06/03 00:28:48;;;;;;;12.63;8.00;;;9.20;99.90;;;;;;4982849;28;20372;-82
2022/06/03 00:31:39;;;;;;;10.70;8.15;;;9.20;99.90;;;;;;4979858;28;20085;-82
2022/06/03 00:34:26;;;;;;;10.20;7.18;;;9.10;99.90;;;;;;4984598;28;20049;-82
2022/06/03 00:37:09;;;;;;;9.45;6.70;;;9.10;99.90;;;;;;4993594;28;20207;-82
2022/06/03 00:39:54;;;;;;;7.38;6.30;;;9.00;99.90;;;;;;4980897;28;20053;-82
2022/06/03 00:42:21;;;;;;;8.98;6.07;;;9.00;99.90;;;;;;4981740;28;20249;-82
2022/06/03 00:45:18;;;;;;;12.40;7.00;;;9.00;99.90;;;;;;4981192;28;20758;-82
2022/06/03 00:48:24;;;;;;;8.75;6.53;;;9.00;99.90;;;;;;4995196;28;20042;-82
2022/06/03 00:51:17;;;;;;;10.10;7.10;;;9.00;99.90;;;;;;4976024;28;20034;-82
2022/06/03 00:54:30;;;;;;;8.57;6.53;;;8.90;99.90;;;;;;5012400;28;20123;-82
2022/06/03 00:57:17;;;;;;;10.50;6.82;;;9.00;99.90;;;;;;4982350;28;20109;-82
2022/06/03 00:59:53;;;;;;;9.35;6.95;;;9.00;99.90;;;;;;4983923;28;20049;-82
2022/06/03 01:02:37;;;;;;;12.52;7.18;;;9.00;99.90;;;;;;5004338;28;20038;-82
2022/06/03 01:05:09;;;;;;;11.57;7.85;;;9.00;99.90;;;;;;4981334;28;20122;-82
2022/06/03 01:07:41;;;;;;;11.63;7.50;;;9.00;99.90;;;;;;4998028;28;20074;-82
2022/06/03 01:10:43;;;;;;;9.10;7.43;;;8.90;99.90;;;;;;4982779;28;20038;-82
2022/06/03 01:13:24;;;;;;;9.30;7.63;;;8.90;99.90;;;;;;4982836;28;20109;-82
2022/06/03 01:16:26;;;;;;;12.75;7.50;;;8.90;99.90;;;;;;4984716;28;20509;-82
2022/06/03 01:19:21;;;;;;;10.30;7.20;;;8.90;99.90;;;;;;4978755;28;20243;-82
2022/06/03 01:22:05;;;;;;;7.85;6.30;;;8.80;99.90;;;;;;4978200;28;20181;-82
2022/06/03 01:24:50;;;;;;;10.25;7.47;;;8.70;99.90;;;;;;4981070;28;20064;-82
2022/06/03 01:27:59;;;;;;;8.13;6.78;;;8.60;99.90;;;;;;5003087;28;20050;-82
2022/06/03 01:31:03;;;;;;;14.23;7.05;;;8.60;99.90;;;;;;4998207;28;20763;-81
2022/06/03 01:34:09;;;;;;;9.63;7.00;;;8.60;99.90;;;;;;4987805;28;20476;-82
2022/06/03 01:36:59;;;;;;;7.40;6.57;;;8.50;99.90;;;;;;4975388;28;20231;-82
2022/06/03 01:39:47;;;;;;;10.73;7.35;;;8.50;99.90;;;;;;4990785;28;20097;-82
2022/06/03 01:42:38;;;;;;;9.93;7.45;;;8.50;99.90;;;;;;5010298;28;20478;-82
2022/06/03 01:45:22;;;;;;;10.52;7.93;;;8.60;99.90;;;;;;4997455;28;20042;-82
2022/06/03 01:48:04;;;;;;;10.02;6.72;;;8.50;99.90;;;;;;5001518;28;20477;-82
2022/06/03 01:50:55;;;;;;;10.90;7.78;;;8.40;99.90;;;;;;4984368;28;20265;-82
2022/06/03 01:53:48;;;;;;;15.35;9.63;;;8.50;99.90;;;;;;4980961;28;20034;-82
2022/06/03 01:56:46;;;;;;;13.07;9.90;;;8.50;99.90;;;;;;4984933;28;20038;-82
2022/06/03 01:59:59;;;;;;;10.27;8.20;;;8.60;99.90;;;;;;4985648;28;20034;-82
2022/06/03 02:02:46;;;;;;;11.65;8.02;;;8.50;99.90;;;;;;5013698;28;20046;-82
2022/06/03 02:05:49;;;;;;;18.85;10.43;;;8.40;99.90;;;;;;4999731;28;20361;-82
2022/06/03 02:08:37;;;;;;;11.07;8.65;;;8.50;99.90;;;;;;4984666;28;20042;-82
2022/06/03 02:11:05;;;;;;;13.23;9.50;;;8.50;99.90;;;;;;4984092;28;20070;-82
2022/06/03 02:14:12;;;;;;;13.40;8.88;;;8.40;99.90;;;;;;5000319;28;20050;-82
2022/06/03 02:16:47;;;;;;;13.30;9.52;;;8.40;99.90;;;;;;4999216;28;20052;-82
2022/06/03 02:19:40;;;;;;;11.18;8.90;;;8.40;99.90;;;;;;5013687;28;20049;-82
2022/06/03 02:22:47;;;;;;;15.30;9.88;;;8.30;99.90;;;;;;4978359;28;20053;-82
2022/06/03 02:25:21;;;;;;;11.60;8.68;;;8.30;99.90;;;;;;5008365;28;20042;-82
2022/06/03 02:28:10;;;;;;;13.27;9.02;;;8.20;99.90;;;;;;5001144;28;20046;-82
2022/06/03 02:30:45;;;;;;;12.43;9.18;;;8.30;99.90;;;;;;4984817;28;20469;-82
2022/06/03 02:33:16;;;;;;;13.30;9.07;;;8.30;99.90;;;;;;4999739;28;20077;-82
2022/06/03 02:36:02;;;;;;;14.40;9.65;;;8.30;99.90;;;;;;4984024;28;20129;-82
2022/06/03 02:38:43;;;;;;;;;;;8.30;99.90;;;;;;5011840;28;20073;-82
2022/06/03 02:41:36;;;;;;;15.98;10.25;;;8.30;99.90;;;;;;5003179;28;20407;-82
2022/06/03 02:44:20;;;;;;;14.15;9.88;;;8.30;99.90;;;;;;4983117;28;20153;-82
2022/06/03 02:47:20;;;;;;;16.60;10.60;;;8.30;99.90;;;;;;4982748;28;20490;-82
2022/06/03 02:50:05;;;;;;;15.50;10.07;;;8.30;1.00;;;;;;4985318;28;20046;-82
2022/06/03 02:52:50;;;;;;;15.35;10.02;;;8.30;99.90;;;;;;5010075;28;20058;-82
2022/06/03 02:55:37;;;;;;;13.80;10.52;;;8.10;99.90;;;;;;5010051;28;20035;-81
2022/06/03 02:58:25;;;;;;;14.65;9.88;;;8.20;1.00;;;;;;5012776;28;20066;-82
2022/06/03 03:00:53;;;;;;;14.20;9.73;;;8.20;1.00;;;;;;4985562;28;20527;-82
2022/06/03 03:03:22;;;;;;;15.50;10.13;;;8.10;99.90;;;;;;5014205;28;20050;-82
2022/06/03 03:06:19;;;;;;;17.38;10.30;;;8.10;99.90;;;;;;4978157;28;20388;-82
2022/06/03 03:08:54;;;;;;;13.73;8.95;;;8.00;99.90;;;;;;4984354;28;20117;-82
2022/06/03 03:11:41;;;;;;;12.30;9.27;;;8.00;99.90;;;;;;4998870;28;20053;-82
2022/06/03 03:14:41;;;;;;;13.93;9.63;;;8.00;99.90;;;;;;5011181;28;20054;-81
2022/06/03 03:17:16;;;;;;;12.25;10.00;;;8.00;99.90;;;;;;4995799;28;20038;-82
2022/06/03 03:19:41;;;;;;;16.08;9.98;;;8.00;99.90;;;;;;4979995;28;20398;-82
2022/06/03 03:22:21;;;;;;;13.55;10.15;;;8.00;99.90;;;;;;5011452;28;20042;-82
2022/06/03 03:25:11;;;;;;;14.10;10.02;;;8.00;99.90;;;;;;5009610;28;20035;-82
2022/06/03 03:28:01;;;;;;;15.57;10.70;;;8.10;99.90;;;;;;4984736;28;20038;-82
2022/06/03 03:30:38;;;;;;;19.33;10.95;;;8.20;99.90;;;;;;4983700;28;20034;-82
2022/06/03 03:33:27;;;;;;;16.98;11.02;;;8.20;99.90;;;;;;5008283;28;20078;-82
2022/06/03 03:36:37;;;;;;;19.75;10.05;;;8.30;1.00;;;;;;4983634;28;20064;-81
2022/06/03 03:39:31;;;;;;;15.27;10.05;;;8.30;99.90;;;;;;5008619;28;20077;-81
2022/06/03 03:42:21;;;;;;;13.75;9.38;;;8.30;99.90;;;;;;4997678;28;20137;-82
2022/06/03 03:44:56;;;;;;;15.65;9.27;;;8.30;99.90;;;;;;4975839;28;20046;-82
2022/06/03 03:47:30;;;;;;;13.02;9.75;;;8.30;99.90;;;;;;4997793;28;20121;-82
2022/06/03 03:50:18;;;;;;;16.38;9.93;;;8.50;99.90;;;;;;4981628;28;20089;-81
2022/06/03 03:53:38;;;;;;;12.13;9.13;;;8.50;99.90;;;;;;5008113;28;20133;-82
2022/06/03 03:56:43;;;;;;;13.80;9.18;;;8.60;99.90;;;;;;4979973;28;20041;-82
2022/06/03 03:59:17;;;;;;;13.05;10.60;;;8.80;99.90;;;;;;4991681;28;20084;-82
2022/06/03 04:02:20;;;;;;;15.80;10.50;;;8.90;99.90;;;;;;4964961;28;20074;-82
2022/06/03 04:05:26;;;;;;;18.45;9.85;;;9.10;99.90;;;;;;4983237;28;20827;-82
2022/06/03 04:08:39;;;;;;;17.38;10.98;;;9.20;99.90;;;;;;5009867;28;20093;-82
2022/06/03 04:11:32;;;;;;;14.32;10.77;;;9.30;99.90;;;;;;4970913;28;20055;-82
2022/06/03 04:14:25;;;;;;;17.70;10.93;;;9.40;99.90;;;;;;4997125;28;20309;-82
2022/06/03 04:16:57;;;;;;;15.70;10.27;;;9.60;99.90;;;;;;4984033;28;20030;-82
2022/06/03 04:19:50;;;;;;;16.30;10.18;;;9.70;99.90;;;;;;4997919;28;20065;-81
2022/06/03 04:22:25;;;;;;;16.30;10.90;;;9.90;99.90;;;;;;4978066;28;20398;-81
2022/06/03 04:25:09;;;;;;;16.83;9.63;;;10.00;99.90;;;;;;4996691;28;20050;-81
2022/06/03 04:28:18;;;;;;;18.33;10.30;;;10.10;99.90;;;;;;4982645;28;20041;-82
2022/06/03 04:30:58;;;;;;;12.65;9.27;;;10.20;99.90;;;;;;4977293;28;20045;-81
2022/06/03 04:33:46;;;;;;;15.68;9.55;;;10.30;99.90;;;;;;4984227;28;20047;-82
2022/06/03 04:36:36;;;;;;;17.05;9.98;;;10.30;99.90;;;;;;4989872;28;20536;-81
2022/06/03 04:39:21;;;;;;;16.52;9.23;;;10.20;99.90;;;;;;4980255;28;20399;-82
2022/06/03 04:42:24;;;;;;;18.38;9.40;;;10.30;99.90;;;;;;4984011;28;20061;-82
2022/06/03 04:45:12;;;;;;;15.48;9.02;;;10.50;99.90;;;;;;4980702;28;20046;-81
2022/06/03 04:48:05;;;;;;;14.75;9.05;;;10.60;99.90;;;;;;4995977;28;20077;-82
2022/06/03 04:50:49;;;;;;;11.88;8.40;;;10.70;99.90;;;;;;4980700;28;20053;-81
2022/06/03 04:53:42;;;;;;;14.25;8.70;;;10.80;99.90;;;;;;4983234;28;20029;-82
2022/06/03 04:56:28;;;;;;;17.30;8.83;;;10.90;99.90;;;;;;4973260;28;20053;-81
2022/06/03 04:59:12;;;;;;;11.32;8.45;;;11.00;92.70;;;;;;4980818;28;20303;-81
2022/06/03 05:02:18;;;;;;;10.55;7.80;;;11.10;86.20;;;;;;4981522;28;20046;-81
2022/06/03 05:04:58;;;;;;;11.73;9.02;;;11.20;57.40;;;;;;4979797;28;20102;-82
2022/06/03 05:08:23;;;;;;;12.15;8.60;;;11.30;45.60;;;;;;4996884;28;20062;-82
2022/06/03 05:11:08;;;;;;;12.63;8.60;;;11.40;34.20;;;;;;4998506;28;20121;-81
2022/06/03 05:14:03;;;;;;;14.00;9.15;;;11.50;21.90;;;;;;4985732;28;20038;-81
2022/06/03 05:16:56;;;;;;;18.83;10.23;;;11.70;30.50;;;;;;5009818;28;20134;-81
2022/06/03 05:19:27;;;;;;;15.55;9.50;;;11.70;1.00;;;;;;4994575;28;20115;-82
2022/06/03 05:22:13;;;;;;;13.50;9.05;;;11.80;1.00;;;;;;5000697;28;20042;-82
2022/06/03 05:24:41;;;;;;;13.27;9.45;;;11.90;1.00;;;;;;4982662;28;20117;-81
2022/06/03 05:27:38;;;;;;;9.63;8.10;;;12.00;1.00;;;;;;4994085;28;20124;-81
2022/06/03 05:30:10;;;;;;;14.20;9.43;;;12.10;1.00;;;;;;4975617;28;20401;-82
2022/06/03 05:33:16;;;;;;;15.43;9.13;;;12.20;1.00;;;;;;4998323;28;20042;-81
2022/06/03 05:36:20;;;;;;;11.20;8.38;;;12.30;1.00;;;;;;5007598;28;20078;-81
2022/06/03 05:39:15;;;;;;;12.52;8.18;;;12.40;1.00;;;;;;4986526;28;20038;-82
2022/06/03 05:44:36;;;;;;;13.30;8.10;;;12.60;1.00;;;;;;4963170;28;20139;-82
2022/06/03 05:47:01;;;;;;;11.75;7.57;;;12.70;1.00;;;;;;4980430;28;20046;-82
2022/06/03 05:49:59;;;;;;;11.82;8.13;;;12.70;1.00;;;;;;4983289;28;20042;-82
2022/06/03 05:52:33;;;;;;;11.65;7.53;;;13.00;1.00;;;;;;4980334;28;20038;-82
2022/06/03 05:55:26;;;;;;;11.18;7.10;;;13.00;1.00;;;;;;4981174;28;20536;-82
2022/06/03 05:58:13;;;;;;;10.10;6.93;;;13.10;1.00;;;;;;4983529;28;20109;-82
2022/06/03 06:01:08;;;;;;;11.77;6.95;;;13.20;1.00;;;;;;5004729;28;20046;-82
2022/06/03 06:04:05;;;;;;;9.90;6.68;;;13.30;1.00;;;;;;4985397;28;20412;-81
2022/06/03 06:06:51;;;;;;;12.68;6.90;;;13.40;99.90;;;;;;4993001;28;20046;-82
2022/06/03 06:09:43;;;;;;;14.10;6.72;;;13.40;99.90;;;;;;4997050;28;20073;-81
2022/06/03 06:12:46;;;;;;;8.32;5.57;;;13.60;99.90;;;;;;5005423;28;20042;-82
2022/06/03 06:15:35;;;;;;;9.65;5.25;;;13.60;99.90;;;;;;4982296;28;20033;-81
2022/06/03 06:18:46;;;;;;;7.47;5.35;;;13.70;99.90;;;;;;4985273;28;20038;-82
2022/06/03 06:21:24;;;;;;;8.00;4.53;;;13.70;99.90;;;;;;4980025;28;20053;-82
2022/06/03 06:24:34;;;;;;;5.55;4.38;;;13.90;99.90;;;;;;4984069;28;20038;-82
2022/06/03 06:27:29;;;;;;;7.38;4.22;;;14.00;99.90;;;;;;4984213;28;20042;-82
2022/06/03 06:29:58;;;;;;;6.00;3.92;;;14.00;99.90;;;;;;4983937;28;20081;-81
2022/06/03 06:33:01;;;;;;;5.55;4.15;;;14.10;99.90;;;;;;4989115;28;20030;-82
2022/06/03 06:36:15;;;;;;;7.05;3.53;;;14.20;99.90;;;;;;5001882;28;20046;-82
2022/06/03 06:38:56;;;;;;;4.70;3.42;;;14.30;99.90;;;;;;4973355;28;20050;-82
2022/06/03 06:41:35;;;;;;;5.22;3.30;;;14.40;99.90;;;;;;5012363;28;20129;-82
2022/06/03 06:44:10;;;;;;;5.35;2.97;;;14.50;99.90;;;;;;5000103;28;20046;-82
2022/06/03 06:46:48;;;;;;;;;;;14.60;99.90;;;;;;4984466;28;20038;-82
2022/06/03 06:49:27;;;;;;;4.88;2.60;;;14.70;99.90;;;;;;4998290;28;19937;-82
2022/06/03 06:52:05;;;;;;;5.72;2.60;;;14.70;99.90;;;;;;4978273;28;20516;-82
2022/06/03 06:54:56;;;;;;;3.92;2.88;;;14.90;99.90;;;;;;4999514;28;20042;-82
2022/06/03 06:57:41;;;;;;;4.00;2.83;;;15.00;99.90;;;;;;4998478;28;20034;-82
2022/06/03 07:00:14;;;;;;;;;;;15.10;99.90;;;;;;4983858;28;20053;-81
2022/06/03 07:03:21;;;;;;;3.42;2.67;;;15.20;99.90;;;;;;4983141;28;20023;-82
2022/06/03 07:06:04;;;;;;;3.95;2.50;;;15.20;99.90;;;;;;4997110;28;20054;-82
2022/06/03 07:09:11;;;;;;;5.30;2.20;;;15.30;99.90;;;;;;5010626;28;20142;-81
2022/06/03 07:11:51;;;;;;;4.45;2.35;;;15.50;99.90;;;;;;4985031;28;20041;-81
2022/06/03 07:14:25;;;;;;;3.63;2.22;;;15.60;99.90;;;;;;5011771;28;20077;-82
2022/06/03 07:20:29;;;;;;;5.38;2.38;;;15.80;99.90;;;;;;4985074;28;20445;-82
2022/06/03 07:23:24;;;;;;;3.03;2.05;;;15.90;99.90;;;;;;4979746;28;20189;-82
2022/06/03 07:26:00;;;;;;;2.87;1.97;;;16.00;99.90;;;;;;5007476;28;20034;-82
2022/06/03 07:28:29;;;;;;;3.72;2.28;;;16.00;99.90;;;;;;5013424;28;20469;-82
2022/06/03 07:31:07;;;;;;;4.10;2.17;;;16.10;93.00;;;;;;4982309;28;20579;-82
2022/06/03 07:33:36;;;;;;;3.60;2.05;;;16.10;95.90;;;;;;4986775;28;20046;-82
2022/06/03 07:36:07;;;;;;;3.53;2.33;;;16.10;90.30;;;;;;4978535;28;20034;-82
2022/06/03 07:38:57;;;;;;;4.57;2.10;;;16.40;94.30;;;;;;5012642;28;20128;-82
2022/06/03 07:41:42;;;;;;;3.25;2.00;;;16.30;93.70;;;;;;4985571;28;20046;-82
2022/06/03 07:44:16;;;;;;;4.28;2.60;;;16.10;93.20;;;;;;4976810;28;20164;-82
2022/06/03 07:46:52;;;;;;;3.75;1.90;;;16.10;93.90;;;;;;4980281;28;20192;-82
2022/06/03 07:49:21;;;;;;;4.40;2.20;;;16.10;99.00;;;;;;4977085;28;20133;-82
2022/06/03 07:51:52;;;;;;;4.60;2.30;;;16.40;94.00;;;;;;5003233;28;20041;-82
2022/06/03 07:54:36;;;;;;;5.03;2.13;;;16.60;95.10;;;;;;5002484;28;20050;-82
2022/06/03 07:57:04;;;;;;;4.60;2.03;;;16.60;94.10;;;;;;5008749;28;20169;-82
2022/06/03 07:59:32;;;;;;;3.28;1.90;;;16.80;92.50;;;;;;4975021;28;20050;-82
2022/06/03 08:02:05;;;;;;;5.53;1.95;;;16.90;82.60;;;;;;5005398;28;20046;-82
2022/06/03 08:04:35;;;;;;;3.50;2.03;;;17.00;71.80;;;;;;4978923;28;20665;-82
2022/06/03 08:12:37;;;;;;;3.22;2.08;;;17.30;72.50;;;;;;4976739;28;20073;-82
2022/06/03 08:15:21;;;;;;;3.40;2.10;;;17.40;74.40;;;;;;4992315;28;20057;-81
2022/06/03 08:17:49;;;;;;;4.30;1.90;;;17.40;62.60;;;;;;4993619;28;20042;-82
2022/06/03 08:20:18;;;;;;;2.42;1.67;;;17.50;70.10;;;;;;5005022;28;20050;-82
2022/06/03 08:22:47;;;;;;;2.60;1.88;;;17.60;56.70;;;;;;4977945;28;20118;-82
2022/06/03 08:25:19;;;;;;;3.50;1.80;;;17.70;70.50;;;;;;4974593;28;20042;-82
2022/06/03 08:27:46;;;;;;;2.28;1.70;;;17.70;56.10;;;;;;4977539;28;20121;-82
2022/06/03 08:30:19;;;;;;;1.75;1.38;;;17.90;65.20;;;;;;4976027;28;20050;-81
2022/06/03 08:32:52;;;;;;;4.25;1.80;;;18.20;68.50;;;;;;4976331;28;20346;-81
2022/06/03 08:35:25;;;;;;;2.08;1.65;;;18.20;58.10;;;;;;4975152;28;20076;-82
2022/06/03 08:37:55;;;;;;;2.92;2.00;;;18.20;53.00;;;;;;4974478;28;20034;-82
2022/06/03 08:40:38;;;;;;;2.95;1.70;;;18.30;49.10;;;;;;4982509;28;20072;-82
2022/06/03 08:43:21;;;;;;;2.65;1.77;;;18.20;43.90;;;;;;4979311;28;20085;-82
2022/06/03 08:46:04;;;;;;;7.10;2.00;;;18.10;38.40;;;;;;5012204;28;20281;-82
2022/06/03 08:48:33;;;;;;;5.30;2.25;;;18.30;46.20;;;;;;5007386;28;20076;-82
2022/06/03 08:51:01;;;;;;;4.10;2.00;;;18.60;47.60;;;;;;4973627;28;20067;-82
2022/06/03 08:53:36;;;;;;;3.70;1.95;;;18.80;45.10;;;;;;4988657;28;20031;-82
2022/06/03 08:56:22;;;;;;;1.88;1.50;;;18.80;45.50;;;;;;4974902;28;20204;-82
2022/06/03 08:59:04;;;;;;;3.20;1.80;;;18.80;32.10;;;;;;4975866;28;20545;-82
2022/06/03 09:01:36;;;;;;;4.30;1.95;;;18.80;31.80;;;;;;4978551;28;20058;-82
2022/06/03 09:04:05;;;;;;;3.30;2.08;;;18.90;29.20;;;;;;5007438;28;20051;-82
2022/06/03 09:06:41;;;;;;;3.85;1.77;;;19.00;25.20;;;;;;4999986;28;20036;-82
2022/06/03 09:09:13;;;;;;;2.90;1.90;;;19.10;29.10;;;;;;5010594;28;20053;-82
2022/06/03 09:11:57;;;;;;;6.20;2.20;;;19.00;24.10;;;;;;5010745;28;20343;-82
2022/06/03 09:14:27;;;;;;;3.00;1.60;;;19.20;26.10;;;;;;4998460;28;20085;-82
2022/06/03 09:16:57;;;;;;;3.13;1.90;;;19.60;24.20;;;;;;4980688;28;20030;-82
2022/06/03 09:19:40;;;;;;;5.13;2.20;;;19.50;20.80;;;;;;4994588;28;20133;-82
2022/06/03 09:22:15;;;;;;;7.18;2.20;;;19.70;24.70;;;;;;4985045;28;20053;-82
2022/06/03 09:24:42;;;;;;;3.92;2.33;;;19.30;15.70;;;;;;4995359;28;20054;-82
2022/06/03 09:27:10;;;;;;;3.28;2.10;;;19.50;16.60;;;;;;4979328;28;20524;-82
2022/06/03 09:29:38;;;;;;;3.38;2.20;;;19.70;16.00;;;;;;4974642;28;20467;-82
2022/06/03 09:32:06;;;;;;;4.00;2.25;;;19.70;22.40;;;;;;5012197;28;20432;-82
2022/06/03 09:34:47;;;;;;;3.47;2.03;;;19.80;15.70;;;;;;4977667;28;20056;-82
2022/06/03 09:37:19;;;;;;;2.78;2.00;;;20.10;16.50;;;;;;5002703;28;20053;-82
2022/06/03 09:39:48;;;;;;;4.05;2.28;;;20.30;18.40;;;;;;4992949;28;20057;-81
2022/06/03 09:42:16;;;;;;;4.78;2.30;;;20.40;17.50;;;;;;4977218;28;20080;-82
2022/06/03 09:44:47;;;;;;;3.13;2.35;;;20.50;15.00;;;;;;5003354;28;20120;-81
2022/06/03 09:47:18;;;;;;;3.80;2.20;;;20.30;8.50;;;;;;4959852;28;20060;-82
2022/06/03 09:49:46;;;;;;;4.28;2.08;;;20.50;8.40;;;;;;4972554;28;20125;-82
2022/06/03 09:52:16;;;;;;;2.25;2.05;;;20.70;8.90;;;;;;4977871;28;20052;-82
2022/06/03 09:54:44;;;;;;;3.42;2.00;;;20.80;8.40;;;;;;4997350;28;20144;-82
2022/06/03 09:57:28;;;;;;;4.30;2.33;;;20.80;13.50;;;;;;4983935;28;20494;-81
2022/06/03 10:00:16;;;;;;;2.45;2.10;;;21.10;11.80;;;;;;4975714;28;20121;-82
2022/06/03 10:02:42;;;;;;;4.85;2.63;;;21.20;13.20;;;;;;5009286;28;20044;-82
2022/06/03 10:05:10;;;;;;;2.83;2.40;;;21.20;8.30;;;;;;4978879;28;20066;-82
2022/06/03 10:07:36;;;;;;;3.42;2.30;;;20.70;1.00;;;;;;4973122;28;20297;-82
2022/06/03 10:12:52;;;;;;;3.17;2.20;;;21.00;1.00;;;;;;4977970;28;20097;-82
2022/06/03 10:15:38;;;;;;;3.53;2.35;;;21.00;1.00;;;;;;4977684;28;20182;-82
2022/06/03 10:18:22;;;;;;;2.90;2.33;;;21.00;1.00;;;;;;4992345;28;20069;-81
2022/06/03 10:20:51;;;;;;;2.55;2.03;;;21.10;1.00;;;;;;4977162;28;20513;-82
2022/06/03 10:23:21;;;;;;;4.28;2.05;;;20.70;1.00;;;;;;4978883;28;20042;-81
2022/06/03 10:25:49;;;;;;;2.28;1.90;;;21.00;1.00;;;;;;4975007;28;20181;-82
2022/06/03 10:28:16;;;;;;;2.42;2.08;;;21.20;1.00;;;;;;4991247;28;20121;-82
2022/06/03 10:30:44;;;;;;;3.15;1.95;;;21.30;1.00;;;;;;5008276;28;20053;-81
2022/06/03 10:33:21;;;;;;;2.95;1.77;;;21.40;1.00;;;;;;4997307;28;20591;-83
2022/06/03 10:35:50;;;;;;;3.17;2.10;;;21.50;1.00;;;;;;4981365;28;20077;-82
2022/06/03 10:38:21;;;;;;;2.22;2.03;;;21.20;1.00;;;;;;4996984;28;20050;-82
2022/06/03 10:40:52;;;;;;;2.22;2.00;;;21.40;1.00;;;;;;5004957;28;20108;-82
2022/06/03 10:43:30;;;;;;;2.95;1.85;;;21.60;1.00;;;;;;5010350;28;20136;-82
2022/06/03 10:46:15;;;;;;;2.42;1.90;;;21.00;1.00;;;;;;4994415;28;20440;-82
2022/06/03 10:48:42;;;;;;;2.63;1.70;;;21.40;1.00;;;;;;4983171;28;20461;-82
2022/06/03 11:01:06;;;;;;;5.85;2.15;;;21.80;1.00;;;;;;4980051;28;20051;-82
2022/06/03 11:02:36;;;;;;;3.40;2.10;;;21.80;1.00;;;;;;4979019;28;20085;-82
2022/06/03 11:05:11;;;;;;;4.30;2.30;;;20.80;1.00;;;;;;4979681;28;20045;-82
2022/06/03 11:07:37;;;;;;;;;;;21.30;1.00;;;;;;5006420;28;20038;-83
2022/06/03 11:10:09;;;;;;;4.78;2.00;;;21.20;1.00;;;;;;4978235;28;19991;-82
2022/06/03 11:12:35;;;;;;;2.83;1.85;;;21.70;1.00;;;;;;4978746;28;20113;-82
2022/06/03 11:15:01;;;;;;;3.33;2.10;;;22.20;1.00;;;;;;4983937;28;20058;-82
2022/06/03 11:17:40;;;;;;;4.00;2.10;;;22.50;1.00;;;;;;4988894;28;20103;-82
2022/06/03 11:20:19;;;;;;;4.25;2.15;;;22.60;1.00;;;;;;4983473;28;20034;-82
2022/06/03 11:22:45;;;;;;;5.32;2.38;;;22.60;1.00;;;;;;4985841;28;20129;-82
2022/06/03 11:25:22;;;;;;;3.33;2.05;;;22.60;1.00;;;;;;4983362;28;20121;-82
2022/06/03 11:28:11;;;;;;;3.83;2.00;;;22.40;1.00;;;;;;5012453;28;20543;-82
2022/06/03 11:30:47;;;;;;;4.65;1.90;;;22.00;1.00;;;;;;4997707;28;20303;-82
2022/06/03 11:33:27;;;;;;;3.67;2.30;;;22.60;1.00;;;;;;5012928;28;20038;-83
2022/06/03 11:35:57;;;;;;;3.25;1.85;;;22.30;1.00;;;;;;5012037;28;20053;-82
2022/06/03 11:38:50;;;;;;;3.80;2.10;;;22.70;1.00;;;;;;5007939;28;20089;-82
2022/06/03 11:41:26;;;;;;;3.85;2.17;;;23.30;1.00;;;;;;4978837;28;20055;-83
2022/06/03 11:43:58;;;;;;;2.67;2.40;;;22.70;1.00;;;;;;4987303;28;20211;-83
2022/06/03 11:46:32;;;;;;;2.60;2.17;;;22.90;1.00;;;;;;4990089;28;20049;-83
2022/06/03 11:48:58;;;;;;;3.40;2.20;;;22.80;1.00;;;;;;5010133;28;20034;-83
2022/06/03 11:51:25;;;;;;;3.35;2.20;;;23.10;1.00;;;;;;4983570;28;20308;-82
2022/06/03 11:53:52;;;;;;;2.97;2.00;;;23.30;1.00;;;;;;4980532;28;20495;-82
2022/06/03 11:56:23;;;;;;;2.90;2.05;;;23.70;1.00;;;;;;4978783;28;20054;-83
2022/06/03 11:58:49;;;;;;;5.38;2.38;;;23.00;1.00;;;;;;4978184;28;20629;-83
2022/06/03 12:01:29;;;;;;;3.05;2.00;;;22.00;1.00;;;;;;4989134;28;20053;-83
2022/06/03 12:04:20;;;;;;;3.65;2.00;;;21.80;1.00;;;;;;4978167;28;20328;-83
2022/06/03 12:07:15;;;;;;;2.80;1.92;;;23.10;1.00;;;;;;4976983;28;20052;-83
2022/06/03 12:09:58;;;;;;;4.30;2.17;;;23.70;1.00;;;;;;5007761;28;20050;-83
2022/06/03 12:15:31;;;;;;;4.05;2.25;;;23.30;1.00;;;;;;4992564;28;20561;-84
2022/06/03 12:18:06;;;;;;;4.22;2.22;;;23.60;1.00;;;;;;4994794;28;20050;-84
2022/06/03 12:20:32;;;;;;;;;;;23.40;1.00;;;;;;5005774;28;20547;-83
2022/06/03 12:23:18;;;;;;;3.90;2.15;;;23.00;1.00;;;;;;4996713;28;20436;-83
2022/06/03 12:25:53;;;;;;;2.67;2.20;;;23.20;1.00;;;;;;4991049;28;20038;-83
2022/06/03 12:28:37;;;;;;;2.25;1.90;;;22.50;1.00;;;;;;4974859;28;20042;-83
2022/06/03 12:31:26;;;;;;;2.55;2.08;;;23.40;1.00;;;;;;4977723;28;20100;-83
2022/06/03 12:34:01;;;;;;;1.88;1.77;;;23.70;1.00;;;;;;4974380;28;20057;-83
2022/06/03 12:36:54;;;;;;;4.85;2.13;;;23.70;1.00;;;;;;4989525;28;20046;-83
2022/06/03 12:39:28;;;;;;;3.08;2.40;;;24.10;1.00;;;;;;4996425;28;20729;-84
2022/06/03 12:41:54;;;;;;;4.53;2.00;;;23.00;1.00;;;;;;4994223;28;20446;-83
2022/06/03 12:44:33;;;;;;;4.57;2.40;;;23.10;1.00;;;;;;5005209;28;20418;-83
2022/06/03 12:47:18;;;;;;;2.55;1.90;;;23.90;1.00;;;;;;4980241;28;20145;-83
2022/06/03 12:49:43;;;;;;;3.22;2.25;;;23.40;1.00;;;;;;4987710;28;20034;-84
2022/06/03 12:52:21;;;;;;;2.20;1.90;;;23.90;1.00;;;;;;5003719;28;20128;-84
2022/06/03 12:55:20;;;;;;;2.22;2.03;;;23.90;1.00;;;;;;4993636;28;20122;-83
2022/06/03 12:58:02;;;;;;;3.17;1.95;;;24.40;1.00;;;;;;4992762;28;20531;-83
2022/06/03 13:00:32;;;;;;;2.97;2.05;;;24.30;1.00;;;;;;4988208;28;20046;-84
2022/06/03 13:03:02;;;;;;;2.30;2.00;;;24.40;1.00;;;;;;4989754;28;20414;-83
2022/06/03 13:05:43;;;;;;;4.13;2.50;;;23.70;1.00;;;;;;4993248;28;20042;-84
2022/06/03 13:08:31;;;;;;;4.10;2.00;;;23.00;1.00;;;;;;4979315;28;20109;-84
2022/06/03 13:11:06;;;;;;;4.65;2.00;;;24.20;1.00;;;;;;4980299;28;20061;-83
2022/06/03 13:13:35;;;;;;;3.38;2.08;;;24.60;1.00;;;;;;4976322;28;20046;-84
2022/06/03 13:16:21;;;;;;;2.30;1.80;;;24.90;1.00;;;;;;5004679;28;20365;-84
2022/06/03 13:18:49;;;;;;;2.17;1.80;;;24.00;1.00;;;;;;4965607;28;20064;-83
2022/06/03 13:21:21;;;;;;;2.95;1.85;;;23.90;1.00;;;;;;5011148;28;20151;-84
2022/06/03 13:23:50;;;;;;;2.03;1.73;;;24.70;1.00;;;;;;4983562;28;20369;-84
2022/06/03 13:26:22;;;;;;;4.03;2.38;;;24.40;1.00;;;;;;4986811;28;20039;-83
2022/06/03 13:28:54;;;;;;;6.57;1.77;;;24.60;1.00;;;;;;4978050;28;20145;-84
2022/06/03 13:31:22;;;;;;;3.50;1.80;;;24.10;1.00;;;;;;4993390;28;20618;-83
2022/06/03 13:34:15;;;;;;;3.33;1.73;;;24.30;1.00;;;;;;4980437;28;20327;-84
2022/06/03 13:36:46;;;;;;;3.70;1.90;;;24.80;1.00;;;;;;5004876;28;20061;-83
2022/06/03 13:39:24;;;;;;;2.10;1.90;;;24.10;1.00;;;;;;5000257;28;20054;-85
2022/06/03 13:45:01;;;;;;;2.53;1.65;;;24.40;1.00;;;;;;4975640;28;20035;-85
2022/06/03 13:47:35;;;;;;;2.80;1.60;;;23.40;1.00;;;;;;4989986;28;20129;-84
2022/06/03 13:50:00;;;;;;;2.65;1.65;;;24.60;1.00;;;;;;5005305;28;20085;-84
2022/06/03 13:52:37;;;;;;;5.97;2.00;;;24.00;1.00;;;;;;4977921;28;20120;-85
2022/06/03 13:55:34;;;;;;;4.07;1.52;;;23.70;1.00;;;;;;4970714;28;20046;-84
2022/06/03 13:58:09;;;;;;;2.53;1.50;;;22.50;1.00;;;;;;4976046;28;20124;-84
2022/06/03 14:01:00;;;;;;;5.50;1.90;;;22.40;1.00;;;;;;4973840;28;20042;-84
2022/06/03 14:03:28;;;;;;;2.53;1.80;;;22.00;1.00;;;;;;4972427;28;20165;-84
2022/06/03 14:06:14;;;;;;;5.88;1.52;;;22.30;1.00;;;;;;4992742;28;20042;-83
2022/06/03 14:08:50;;;;;;;3.55;1.70;;;23.50;1.00;;;;;;4989965;28;20037;-84
2022/06/03 14:11:28;;;;;;;2.67;1.20;;;24.00;1.00;;;;;;4994609;28;20675;-85
2022/06/03 14:14:12;;;;;;;2.22;1.50;;;24.40;1.00;;;;;;4997422;28;20066;-85
2022/06/03 14:17:02;;;;;;;5.73;1.30;;;24.00;1.00;;;;;;5010604;28;20037;-84
2022/06/03 14:19:42;;;;;;;2.22;1.38;;;24.00;1.00;;;;;;4980492;28;20179;-84
2022/06/03 14:22:34;;;;;;;3.65;1.60;;;22.10;1.00;;;;;;4986531;28;20074;-84
2022/06/03 14:25:38;;;;;;;2.22;1.40;;;21.70;1.00;;;;;;4995617;28;20054;-84
2022/06/03 14:28:14;;;;;;;4.03;1.48;;;22.60;1.00;;;;;;4977946;28;20160;-85
2022/06/03 14:31:09;;;;;;;1.30;1.20;;;23.00;1.00;;;;;;4965166;28;20129;-84
2022/06/03 14:33:40;;;;;;;2.83;1.40;;;23.60;1.00;;;;;;4962979;28;20058;-85
2022/06/03 14:36:09;;;;;;;3.78;1.35;;;22.90;1.00;;;;;;5009765;28;20057;-84